createdAt,value
2019-05-16T00:00:40.600Z,102230.06
2019-05-16T00:05:53.278Z,102218.27
2019-05-16T00:10:48.829Z,102223.36
2019-05-16T00:15:52.080Z,102221.59
2019-05-16T00:20:54.986Z,102220.88
2019-05-16T00:25:58.680Z,102208.30
2019-05-16T00:31:02.224Z,102203.39
2019-05-16T00:36:06.908Z,102192.63
2019-05-16T00:41:10.582Z,102192.31
2019-05-16T00:46:13.837Z,102188.12
2019-05-16T00:51:18.341Z,102169.48
2019-05-16T00:56:21.855Z,102164.61
2019-05-16T01:01:24.825Z,102166.91
2019-05-16T01:06:28.692Z,102158.89
2019-05-16T01:11:31.985Z,102150.12
2019-05-16T01:16:35.103Z,102147.94
2019-05-16T01:21:39.088Z,102141.85
2019-05-16T01:26:43.063Z,102137.75
2019-05-16T01:31:48.377Z,102130.73
2019-05-16T01:36:51.905Z,102128.09
2019-05-16T01:41:55.480Z,102120.23
2019-05-16T01:46:58.624Z,102120.16
2019-05-16T01:52:02.137Z,102112.33
2019-05-16T01:57:08.006Z,102112.20
2019-05-16T02:02:11.243Z,102109.55
2019-05-16T02:07:14.154Z,102104.98
2019-05-16T02:12:18.509Z,102102.60
2019-05-16T02:17:23.266Z,102093.75
2019-05-16T02:22:28.390Z,102088.81
2019-05-16T02:27:31.207Z,102086.44
2019-05-16T02:32:33.840Z,102087.02
2019-05-16T02:37:41.764Z,102071.88
2019-05-16T02:42:42.967Z,102065.58
2019-05-16T02:47:46.188Z,102066.70
2019-05-16T02:52:51.770Z,102059.41
2019-05-16T02:57:53.727Z,102059.43
2019-05-16T03:03:01.207Z,102054.81
2019-05-16T03:08:04.774Z,102050.96
2019-05-16T03:13:11.177Z,102049.23
2019-05-16T03:18:17.073Z,102042.73
2019-05-16T03:23:21.851Z,102039.56
2019-05-16T03:28:24.924Z,102034.83
2019-05-16T03:33:38.964Z,102030.52
2019-05-16T03:38:32.828Z,102027.34
2019-05-16T03:43:36.440Z,102015.02
2019-05-16T03:48:40.905Z,102010.17
2019-05-16T03:53:44.397Z,102005.87
2019-05-16T03:58:50.775Z,101992.61
2019-05-16T04:03:52.746Z,101994.30
2019-05-16T04:08:55.649Z,101989.09
2019-05-16T04:14:01.403Z,101994.73
2019-05-16T04:19:04.268Z,101992.52
2019-05-16T04:24:07.651Z,101980.86
2019-05-16T04:29:11.854Z,101981.88
2019-05-16T04:34:25.627Z,101977.77
2019-05-16T04:39:31.879Z,101975.30
2019-05-16T04:44:33.324Z,101974.45
2019-05-16T04:49:36.964Z,101974.68
2019-05-16T04:54:41.999Z,101977.73
2019-05-16T04:59:44.967Z,101968.98
2019-05-16T05:04:50.845Z,101963.20
2019-05-16T05:09:53.173Z,101961.61
2019-05-16T05:14:56.239Z,101960.36
2019-05-16T05:20:01.024Z,101955.75
2019-05-16T05:25:05.117Z,101965.70
2019-05-16T05:30:10.462Z,101964.13
2019-05-16T05:35:14.272Z,101958.65
2019-05-16T05:40:19.913Z,101955.19
2019-05-16T05:45:22.666Z,101956.30
2019-05-16T05:50:27.541Z,101962.55
2019-05-16T05:55:31.421Z,101960.37
2019-05-16T06:00:34.761Z,101955.47
2019-05-16T06:05:38.034Z,101954.84
2019-05-16T06:10:41.120Z,101955.03
2019-05-16T06:15:43.757Z,101952.08
2019-05-16T06:20:47.289Z,101953.19
2019-05-16T06:25:51.047Z,101948.97
2019-05-16T06:30:54.316Z,101947.95
2019-05-16T06:35:57.127Z,101928.45
2019-05-16T06:41:00.528Z,101937.44
2019-05-16T06:46:03.889Z,101929.69
2019-05-16T06:51:07.109Z,101930.72
2019-05-16T06:56:10.452Z,101926.33
2019-05-16T07:01:14.090Z,101928.15
2019-05-16T07:06:36.050Z,101925.18
2019-05-16T07:11:24.195Z,101916.20
2019-05-16T07:16:29.832Z,101921.70
2019-05-16T07:21:32.559Z,101912.52
2019-05-16T07:26:36.031Z,101919.28
2019-05-16T07:31:40.587Z,101908.39
2019-05-16T07:36:43.487Z,101913.78
2019-05-16T07:41:46.722Z,101906.41
2019-05-16T07:46:51.574Z,101902.52
2019-05-16T07:51:54.796Z,101898.20
2019-05-16T07:57:09.594Z,101890.20
2019-05-16T08:02:02.747Z,101885.16
2019-05-16T08:07:06.001Z,101879.28
2019-05-16T08:12:10.531Z,101870.63
2019-05-16T08:17:14.407Z,101861.55
2019-05-16T08:22:17.707Z,101854.22
2019-05-16T08:27:20.976Z,101854.60
2019-05-16T08:32:24.057Z,101860.09
2019-05-16T08:37:42.777Z,101852.59
2019-05-16T08:42:32.497Z,101849.20
2019-05-16T08:47:35.516Z,101842.95
2019-05-16T08:52:43.014Z,101838.92
2019-05-16T08:57:43.490Z,101829.95
2019-05-16T09:02:46.632Z,101821.80
2019-05-16T09:07:49.799Z,101821.91
2019-05-16T09:12:52.461Z,101817.02
2019-05-16T09:17:57.942Z,101823.56
2019-05-16T09:23:00.797Z,101822.19
2019-05-16T09:28:04.120Z,101816.58
2019-05-16T09:33:07.405Z,101813.47
2019-05-16T09:38:10.140Z,101804.44
2019-05-16T09:43:13.097Z,101799.70
2019-05-16T09:48:19.006Z,101788.19
2019-05-16T09:53:21.299Z,101784.38
2019-05-16T09:58:24.212Z,101775.63
2019-05-16T10:03:27.271Z,101784.90
2019-05-16T10:08:30.463Z,101774.50
2019-05-16T10:13:33.556Z,101772.97
2019-05-16T10:18:37.078Z,101774.61
2019-05-16T10:23:40.039Z,101765.98
2019-05-16T10:28:46.655Z,101753.78
2019-05-16T10:33:49.396Z,101760.02
2019-05-16T10:38:52.583Z,101761.83
2019-05-16T10:43:56.892Z,101752.98
2019-05-16T10:49:00.490Z,101738.78
2019-05-16T10:54:10.518Z,101736.84
2019-05-16T10:59:50.256Z,101735.70
2019-05-16T11:04:26.318Z,101734.41
2019-05-16T11:09:18.193Z,101736.00
2019-05-16T11:14:20.876Z,101727.52
2019-05-16T11:19:25.600Z,101721.52
2019-05-16T11:24:31.385Z,101713.81
2019-05-16T11:29:36.653Z,101713.52
2019-05-16T11:34:39.554Z,101696.72
2019-05-16T11:39:42.880Z,101683.88
2019-05-16T11:44:47.837Z,101690.50
2019-05-16T11:49:51.358Z,101678.00
2019-05-16T11:54:57.059Z,101682.31
2019-05-16T11:59:59.397Z,101657.39
2019-05-16T12:05:03.079Z,101647.11
2019-05-16T12:10:07.640Z,101645.79
2019-05-16T12:15:11.362Z,101641.30
2019-05-16T12:20:16.667Z,101642.20
2019-05-16T12:25:20.040Z,101626.16
2019-05-16T12:30:23.469Z,101619.38
2019-05-16T12:35:27.735Z,101607.08
2019-05-16T12:40:31.351Z,101601.97
2019-05-16T12:45:34.824Z,101605.66
2019-05-16T12:50:38.901Z,101593.78
2019-05-16T12:55:42.372Z,101598.50
2019-05-16T13:00:54.013Z,101590.58
2019-05-16T13:05:50.158Z,101586.77
2019-05-16T13:10:53.106Z,101579.91
2019-05-16T13:15:56.811Z,101578.10
2019-05-16T13:21:00.410Z,101567.23
2019-05-16T13:26:03.507Z,101556.38
2019-05-16T13:31:07.720Z,101549.53
2019-05-16T13:36:11.151Z,101549.53
2019-05-16T13:41:14.304Z,101532.78
2019-05-16T13:46:17.465Z,101534.34
2019-05-16T13:51:20.672Z,101538.49
2019-05-16T13:56:23.942Z,101536.73
2019-05-16T14:01:27.880Z,101529.16
2019-05-16T14:06:30.974Z,101530.80
2019-05-16T14:11:36.369Z,101531.61
2019-05-16T14:16:39.901Z,101528.87
2019-05-16T14:21:42.806Z,101520.56
2019-05-16T14:26:46.576Z,101505.92
2019-05-16T14:31:49.834Z,101507.95
2019-05-16T14:36:53.344Z,101502.27
2019-05-16T14:41:56.931Z,101505.52
2019-05-16T14:46:59.839Z,101494.89
2019-05-16T14:52:03.393Z,101502.06
2019-05-16T14:57:06.363Z,101500.47
2019-05-16T15:02:09.939Z,101501.56
2019-05-16T15:07:13.026Z,101490.36
2019-05-16T15:12:17.265Z,101477.02
2019-05-16T15:17:20.463Z,101465.46
2019-05-16T15:22:23.418Z,101462.42
2019-05-16T15:27:26.460Z,101453.38
2019-05-16T15:32:31.778Z,101440.08
2019-05-16T15:37:37.356Z,101432.34
2019-05-16T15:42:39.489Z,101414.32
2019-05-16T15:47:42.930Z,101422.28
2019-05-16T15:52:46.461Z,101423.36
2019-05-16T15:57:50.131Z,101422.82
2019-05-16T16:02:53.339Z,101424.20
2019-05-16T16:07:56.925Z,101407.85
2019-05-16T16:13:00.488Z,101415.91
2019-05-16T16:18:08.568Z,101417.51
2019-05-16T16:23:09.605Z,101416.57
2019-05-16T16:28:12.844Z,101421.81
2019-05-16T16:33:25.430Z,101411.57
2019-05-16T16:38:24.524Z,101419.04
2019-05-16T16:43:27.846Z,101403.57
2019-05-16T16:48:31.039Z,101409.25
2019-05-16T16:53:34.262Z,101411.66
2019-05-16T16:58:37.594Z,101410.88
2019-05-16T17:03:40.796Z,101413.22
2019-05-16T17:08:44.426Z,101412.29
2019-05-16T17:13:48.053Z,101399.45
2019-05-16T17:18:51.334Z,101402.36
2019-05-16T17:23:56.882Z,101407.69
2019-05-16T17:29:00.420Z,101396.02
2019-05-16T17:34:03.764Z,101405.67
2019-05-16T17:39:07.759Z,101394.44
2019-05-16T17:44:11.010Z,101398.31
2019-05-16T17:49:14.586Z,101391.88
2019-05-16T17:54:18.134Z,101372.22
2019-05-16T17:59:21.410Z,101384.15
2019-05-16T18:04:26.676Z,101391.18
2019-05-16T18:09:30.359Z,101382.75
2019-05-16T18:14:37.256Z,101377.69
2019-05-16T18:19:40.753Z,101382.75
2019-05-16T18:24:47.298Z,101374.70
2019-05-16T18:29:52.459Z,101382.77
2019-05-16T18:34:58.226Z,101376.59
2019-05-16T18:40:02.417Z,101359.55
2019-05-16T18:45:08.004Z,101356.59
2019-05-16T18:50:12.130Z,101379.85
2019-05-16T18:55:17.033Z,101378.32
2019-05-16T19:00:21.509Z,101372.77
2019-05-16T19:05:26.476Z,101378.74
2019-05-16T19:10:30.268Z,101377.27
2019-05-16T19:15:34.285Z,101382.49
2019-05-16T19:20:37.900Z,101374.25
2019-05-16T19:25:41.282Z,101372.84
2019-05-16T19:30:46.543Z,101373.47
2019-05-16T19:35:49.857Z,101376.20
2019-05-16T19:40:53.872Z,101364.70
2019-05-16T19:45:57.942Z,101356.71
2019-05-16T19:51:01.602Z,101362.95
2019-05-16T19:56:04.227Z,101362.38
2019-05-16T20:01:07.455Z,101366.22
2019-05-16T20:06:10.991Z,101369.42
2019-05-16T20:11:16.711Z,101364.16
2019-05-16T20:16:19.711Z,101355.16
2019-05-16T20:21:23.035Z,101352.87
2019-05-16T20:26:28.017Z,101353.31
2019-05-16T20:31:31.604Z,101351.66
2019-05-16T20:36:36.986Z,101345.03
2019-05-16T20:41:40.270Z,101356.28
2019-05-16T20:46:43.472Z,101351.76
2019-05-16T20:51:49.934Z,101351.85
2019-05-16T20:56:51.327Z,101348.63
2019-05-16T21:01:54.649Z,101350.34
2019-05-16T21:07:05.749Z,101346.89
2019-05-16T21:12:03.551Z,101337.43
2019-05-16T21:17:07.248Z,101325.51
2019-05-16T21:22:10.560Z,101317.68
2019-05-16T21:27:13.948Z,101325.75
2019-05-16T21:32:17.288Z,101321.70
2019-05-16T21:37:20.660Z,101312.70
2019-05-16T21:42:24.124Z,101313.59
2019-05-16T21:47:29.548Z,101308.95
2019-05-16T21:52:32.837Z,101308.70
2019-05-16T21:57:37.694Z,101298.50
2019-05-16T22:02:41.344Z,101292.06
2019-05-16T22:07:47.176Z,101290.41
2019-05-16T22:12:49.943Z,101275.57
2019-05-16T22:17:53.541Z,101283.64
2019-05-16T22:22:57.385Z,101275.71
2019-05-16T22:28:00.883Z,101273.72
2019-05-16T22:33:03.813Z,101265.88
2019-05-16T22:38:07.078Z,101263.69
2019-05-16T22:43:10.514Z,101260.17
2019-05-16T22:48:14.207Z,101251.13
2019-05-16T22:53:17.361Z,101250.22
2019-05-16T22:58:20.191Z,101250.39
2019-05-16T23:03:23.060Z,101246.02
2019-05-16T23:08:27.170Z,101244.06
2019-05-16T23:13:30.227Z,101243.02
2019-05-16T23:18:32.830Z,101230.17
2019-05-16T23:23:37.252Z,101220.98
2019-05-16T23:28:40.629Z,101210.40
2019-05-16T23:33:43.536Z,101213.19
2019-05-16T23:38:47.392Z,101207.02
2019-05-16T23:43:50.647Z,101202.22
2019-05-16T23:48:53.546Z,101193.92
2019-05-16T23:53:57.225Z,101198.61
2019-05-16T23:59:00.389Z,101199.70
